createdAt,value
2017-08-13T00:08:59.541Z,26.70
2017-08-13T00:19:22.865Z,27.00
2017-08-13T00:29:45.083Z,48.60
2017-08-13T00:45:23.003Z,46.70
2017-08-13T00:55:48.865Z,36.83
2017-08-13T01:00:54.772Z,8.27
2017-08-13T01:11:18.011Z,33.43
2017-08-13T01:21:39.242Z,42.97
2017-08-13T01:32:01.838Z,20.73
2017-08-13T01:47:41.317Z,33.83
2017-08-13T01:52:47.169Z,29.30
2017-08-13T02:03:09.814Z,44.17
2017-08-13T02:08:15.578Z,22.53
2017-08-13T02:18:38.340Z,21.80
2017-08-13T02:29:00.866Z,40.50
2017-08-13T02:39:23.582Z,30.20
2017-08-13T02:49:46.096Z,27.13
2017-08-13T03:00:08.709Z,31.55
2017-08-13T03:10:30.604Z,39.67
2017-08-13T03:20:52.421Z,64.50
2017-08-13T03:31:14.220Z,71.70
2017-08-13T03:46:52.808Z,49.53
2017-08-13T03:57:15.401Z,67.72
2017-08-13T04:07:38.012Z,91.82
2017-08-13T04:17:59.556Z,33.70
2017-08-13T04:28:21.457Z,34.20
2017-08-13T04:38:48.100Z,42.55
2017-08-13T04:49:09.925Z,29.85
2017-08-13T04:59:31.961Z,29.65
2017-08-13T05:09:53.878Z,30.53
2017-08-13T05:20:16.473Z,27.25
2017-08-13T05:30:38.374Z,40.33
2017-08-13T05:41:14.852Z,23.20
2017-08-13T05:51:36.498Z,34.50
2017-08-13T06:01:59.325Z,24.17
2017-08-13T06:12:22.841Z,25.03
2017-08-13T06:22:45.436Z,20.77
2017-08-13T06:33:07.195Z,19.23
2017-08-13T06:48:45.713Z,21.65
2017-08-13T06:59:07.283Z,18.20
2017-08-13T07:09:29.137Z,14.38
2017-08-13T07:19:52.506Z,11.10
2017-08-13T07:30:15.144Z,10.25
2017-08-13T07:45:54.727Z,6.33
2017-08-13T07:56:16.535Z,9.43
2017-08-13T08:06:38.514Z,6.30
2017-08-13T08:17:02.968Z,3.53
2017-08-13T08:22:08.739Z,7.33
2017-08-13T08:32:30.564Z,6.30
2017-08-13T08:48:10.223Z,3.73
2017-08-13T08:58:32.744Z,5.00
2017-08-13T09:08:56.882Z,4.67
2017-08-13T09:19:19.636Z,3.50
2017-08-13T09:29:42.247Z,3.00
2017-08-13T09:45:21.581Z,3.00
2017-08-13T09:55:45.931Z,3.20
2017-08-13T10:06:08.473Z,3.70
2017-08-13T10:16:44.779Z,2.30
2017-08-13T10:27:05.357Z,2.50
2017-08-13T10:37:28.707Z,1.70
2017-08-13T10:47:50.480Z,3.40
2017-08-13T10:52:56.240Z,1.43
2017-08-13T11:03:19.174Z,4.40
2017-08-13T11:13:41.072Z,1.80
2017-08-13T11:18:46.846Z,2.70
2017-08-13T11:29:09.412Z,1.70
2017-08-13T11:39:31.974Z,2.45
2017-08-13T11:49:54.560Z,2.08
2017-08-13T12:00:17.075Z,4.62
2017-08-13T12:10:39.672Z,1.95
2017-08-13T12:21:01.464Z,7.50
2017-08-13T12:31:23.208Z,3.83
2017-08-13T12:47:00.240Z,2.78
2017-08-13T12:57:21.967Z,3.50
2017-08-13T13:07:44.588Z,2.45
2017-08-13T13:18:07.129Z,2.50
2017-08-13T13:28:33.623Z,4.10
2017-08-13T13:38:54.170Z,2.28
2017-08-13T13:49:15.990Z,3.33
2017-08-13T13:59:38.502Z,1.40
2017-08-13T14:10:01.195Z,4.15
2017-08-13T14:20:22.932Z,3.20
2017-08-13T14:30:46.192Z,2.00
2017-08-13T14:46:22.560Z,3.10
2017-08-13T14:56:45.870Z,1.87
2017-08-13T15:07:09.429Z,2.37
2017-08-13T15:17:32.988Z,1.60
2017-08-13T15:27:55.526Z,2.15
2017-08-13T15:38:17.388Z,5.12
2017-08-13T15:48:39.114Z,5.30
2017-08-13T15:59:01.701Z,2.60
2017-08-13T16:09:24.256Z,2.40
2017-08-13T16:19:46.190Z,1.87
2017-08-13T16:30:08.066Z,3.30
2017-08-13T16:40:29.923Z,4.60
2017-08-13T16:50:56.529Z,3.55
2017-08-13T17:01:18.363Z,3.10
2017-08-13T17:11:40.145Z,2.90
2017-08-13T17:22:02.089Z,4.97
2017-08-13T17:32:23.921Z,3.72
2017-08-13T17:48:02.478Z,4.75
2017-08-13T17:58:26.615Z,3.45
2017-08-13T18:08:48.472Z,3.30
2017-08-13T18:19:11.204Z,3.60
2017-08-13T18:29:33.146Z,5.23
2017-08-13T18:39:59.383Z,6.00
2017-08-13T18:50:22.104Z,4.30
2017-08-13T19:00:47.061Z,10.30
2017-08-13T19:05:52.850Z,10.77
2017-08-13T19:16:15.260Z,5.07
2017-08-13T19:26:37.391Z,6.53
2017-08-13T19:36:59.906Z,5.05
2017-08-13T19:47:26.471Z,5.77
2017-08-13T19:57:49.033Z,5.70
2017-08-13T20:08:10.773Z,8.00
2017-08-13T20:18:33.431Z,7.70
2017-08-13T20:28:55.335Z,10.37
2017-08-13T20:39:17.097Z,7.77
2017-08-13T20:49:39.703Z,7.93
2017-08-13T20:54:44.697Z,7.27
2017-08-13T21:05:06.240Z,7.50
2017-08-13T21:15:29.973Z,7.70
2017-08-13T21:20:35.734Z,6.80
2017-08-13T21:30:58.325Z,8.20
2017-08-13T21:46:36.887Z,7.50
2017-08-13T21:56:59.405Z,7.00
2017-08-13T22:07:23.014Z,9.13
2017-08-13T22:17:45.737Z,8.00
2017-08-13T22:28:08.300Z,6.70
2017-08-13T22:38:30.865Z,7.70
2017-08-13T22:48:53.446Z,7.03
2017-08-13T23:01:21.260Z,10.03
2017-08-13T23:11:43.786Z,6.20
2017-08-13T23:22:09.563Z,5.67
2017-08-13T23:32:35.628Z,5.80
2017-08-13T23:37:41.416Z,9.37
2017-08-13T23:48:05.004Z,7.53
2017-08-13T23:58:27.413Z,7.60
